Terminal Aerodrome Forecast
Issued by NWS

Home | Current Version | Previous Version | Graphics & Text | Print | Product List | Glossary On
Versions: 1 2 3 4 5 6 7 8 9 10 11 12 13 14 15 16 17 18 19 20 21 22 23 24 25 26 27 28 29
000
FTUS43 KABR 281400 AAA
TAFPIR
TAF AMD
KPIR 281404Z 2814/2912 12010KT 5SM BR FEW004
     FM281500 15018G25KT P6SM SKC
     FM290000 18015KT P6SM BKN100
     FM290600 29020G30KT P6SM BKN100
     FM290900 30033G44KT P6SM BKN030=

USA.gov is the U.S. government's official web portal to all federal, state and local government web resources and services.